sensor_id;sensor_type;location;lat;lon;timestamp;P1;durP1;ratioP1;P2;durP2;ratioP2
5845;SDS011;2949;50.778;7.094;2022-11-06T00:00:34;11.80;;;4.20;;
5845;SDS011;2949;50.778;7.094;2022-11-06T00:03:01;12.40;;;4.67;;
5845;SDS011;2949;50.778;7.094;2022-11-06T00:05:27;8.63;;;3.80;;
5845;SDS011;2949;50.778;7.094;2022-11-06T00:08:11;13.73;;;4.30;;
5845;SDS011;2949;50.778;7.094;2022-11-06T00:10:37;15.57;;;5.83;;
5845;SDS011;2949;50.778;7.094;2022-11-06T00:13:03;9.20;;;4.00;;
5845;SDS011;2949;50.778;7.094;2022-11-06T00:15:29;11.30;;;5.47;;
5845;SDS011;2949;50.778;7.094;2022-11-06T00:17:55;6.60;;;4.20;;
5845;SDS011;2949;50.778;7.094;2022-11-06T00:20:20;5.80;;;4.17;;
5845;SDS011;2949;50.778;7.094;2022-11-06T00:22:46;9.00;;;3.80;;
5845;SDS011;2949;50.778;7.094;2022-11-06T00:25:11;12.60;;;3.40;;
5845;SDS011;2949;50.778;7.094;2022-11-06T00:27:38;9.33;;;4.17;;
5845;SDS011;2949;50.778;7.094;2022-11-06T00:30:05;10.37;;;4.83;;
5845;SDS011;2949;50.778;7.094;2022-11-06T00:32:32;5.07;;;3.60;;
5845;SDS011;2949;50.778;7.094;2022-11-06T00:34:58;8.60;;;3.57;;
5845;SDS011;2949;50.778;7.094;2022-11-06T00:37:23;13.93;;;4.17;;
5845;SDS011;2949;50.778;7.094;2022-11-06T00:39:49;4.50;;;3.80;;
5845;SDS011;2949;50.778;7.094;2022-11-06T00:42:14;5.57;;;3.07;;
5845;SDS011;2949;50.778;7.094;2022-11-06T00:44:40;9.43;;;4.60;;
5845;SDS011;2949;50.778;7.094;2022-11-06T00:47:05;10.27;;;3.83;;
5845;SDS011;2949;50.778;7.094;2022-11-06T00:49:31;4.40;;;3.33;;
5845;SDS011;2949;50.778;7.094;2022-11-06T00:51:56;12.03;;;4.03;;
5845;SDS011;2949;50.778;7.094;2022-11-06T00:54:22;7.97;;;3.37;;
5845;SDS011;2949;50.778;7.094;2022-11-06T00:56:48;6.93;;;3.50;;
5845;SDS011;2949;50.778;7.094;2022-11-06T00:59:14;5.27;;;3.50;;
5845;SDS011;2949;50.778;7.094;2022-11-06T01:01:40;7.70;;;3.63;;
5845;SDS011;2949;50.778;7.094;2022-11-06T01:04:13;9.43;;;3.60;;
5845;SDS011;2949;50.778;7.094;2022-11-06T01:06:43;9.83;;;3.53;;
5845;SDS011;2949;50.778;7.094;2022-11-06T01:09:11;12.40;;;3.33;;
5845;SDS011;2949;50.778;7.094;2022-11-06T01:11:40;9.47;;;3.73;;
5845;SDS011;2949;50.778;7.094;2022-11-06T01:14:09;6.07;;;2.90;;
5845;SDS011;2949;50.778;7.094;2022-11-06T01:16:36;6.80;;;3.60;;
5845;SDS011;2949;50.778;7.094;2022-11-06T01:19:02;8.90;;;3.30;;
5845;SDS011;2949;50.778;7.094;2022-11-06T01:21:29;3.67;;;2.90;;
5845;SDS011;2949;50.778;7.094;2022-11-06T01:24:01;12.57;;;4.47;;
5845;SDS011;2949;50.778;7.094;2022-11-06T01:26:29;6.90;;;3.13;;
5845;SDS011;2949;50.778;7.094;2022-11-06T01:28:55;12.97;;;3.10;;
5845;SDS011;2949;50.778;7.094;2022-11-06T01:31:21;5.97;;;3.33;;
5845;SDS011;2949;50.778;7.094;2022-11-06T01:33:49;4.83;;;2.43;;
5845;SDS011;2949;50.778;7.094;2022-11-06T01:36:16;17.80;;;2.97;;
5845;SDS011;2949;50.778;7.094;2022-11-06T01:38:44;6.40;;;2.60;;
5845;SDS011;2949;50.778;7.094;2022-11-06T01:41:12;11.30;;;3.10;;
5845;SDS011;2949;50.778;7.094;2022-11-06T01:43:53;9.40;;;3.00;;
5845;SDS011;2949;50.778;7.094;2022-11-06T01:46:21;11.30;;;3.17;;
5845;SDS011;2949;50.778;7.094;2022-11-06T01:48:56;9.40;;;3.07;;
5845;SDS011;2949;50.778;7.094;2022-11-06T01:51:37;7.20;;;3.17;;
5845;SDS011;2949;50.778;7.094;2022-11-06T01:54:09;12.10;;;3.27;;
5845;SDS011;2949;50.778;7.094;2022-11-06T01:56:36;9.27;;;3.33;;
5845;SDS011;2949;50.778;7.094;2022-11-06T01:59:04;5.03;;;3.27;;
5845;SDS011;2949;50.778;7.094;2022-11-06T02:01:31;8.27;;;3.43;;
5845;SDS011;2949;50.778;7.094;2022-11-06T02:06:44;8.70;;;2.67;;
5845;SDS011;2949;50.778;7.094;2022-11-06T02:09:12;4.60;;;3.10;;
5845;SDS011;2949;50.778;7.094;2022-11-06T02:11:39;7.20;;;3.30;;
5845;SDS011;2949;50.778;7.094;2022-11-06T02:14:13;5.37;;;2.50;;
5845;SDS011;2949;50.778;7.094;2022-11-06T02:16:50;10.27;;;3.10;;
5845;SDS011;2949;50.778;7.094;2022-11-06T02:25:22;4.20;;;2.60;;
5845;SDS011;2949;50.778;7.094;2022-11-06T02:27:57;5.00;;;2.60;;
5845;SDS011;2949;50.778;7.094;2022-11-06T02:30:32;13.60;;;3.03;;
5845;SDS011;2949;50.778;7.094;2022-11-06T02:33:06;11.70;;;3.50;;
5845;SDS011;2949;50.778;7.094;2022-11-06T02:35:35;6.97;;;3.27;;
5845;SDS011;2949;50.778;7.094;2022-11-06T02:38:06;10.13;;;3.37;;
5845;SDS011;2949;50.778;7.094;2022-11-06T02:40:38;9.00;;;2.37;;
5845;SDS011;2949;50.778;7.094;2022-11-06T02:43:07;3.20;;;2.43;;
5845;SDS011;2949;50.778;7.094;2022-11-06T02:45:46;5.33;;;2.40;;
5845;SDS011;2949;50.778;7.094;2022-11-06T02:48:17;5.10;;;2.17;;
5845;SDS011;2949;50.778;7.094;2022-11-06T02:50:46;4.13;;;2.17;;
5845;SDS011;2949;50.778;7.094;2022-11-06T02:53:15;5.27;;;3.43;;
5845;SDS011;2949;50.778;7.094;2022-11-06T02:55:48;5.70;;;1.97;;
5845;SDS011;2949;50.778;7.094;2022-11-06T02:58:19;6.00;;;2.37;;
5845;SDS011;2949;50.778;7.094;2022-11-06T03:00:51;4.67;;;2.40;;
5845;SDS011;2949;50.778;7.094;2022-11-06T03:03:24;5.60;;;2.20;;
5845;SDS011;2949;50.778;7.094;2022-11-06T03:06:00;4.80;;;1.90;;
5845;SDS011;2949;50.778;7.094;2022-11-06T03:08:43;8.73;;;2.60;;
5845;SDS011;2949;50.778;7.094;2022-11-06T03:11:32;8.07;;;2.30;;
5845;SDS011;2949;50.778;7.094;2022-11-06T03:17:00;9.80;;;2.40;;
5845;SDS011;2949;50.778;7.094;2022-11-06T03:19:51;9.43;;;2.60;;
5845;SDS011;2949;50.778;7.094;2022-11-06T03:22:49;7.00;;;1.73;;
5845;SDS011;2949;50.778;7.094;2022-11-06T03:25:40;3.60;;;1.83;;
5845;SDS011;2949;50.778;7.094;2022-11-06T03:28:16;7.87;;;2.07;;
5845;SDS011;2949;50.778;7.094;2022-11-06T03:30:57;11.77;;;1.97;;
5845;SDS011;2949;50.778;7.094;2022-11-06T03:34:11;5.17;;;1.93;;
5845;SDS011;2949;50.778;7.094;2022-11-06T03:39:06;5.47;;;1.60;;
5845;SDS011;2949;50.778;7.094;2022-11-06T03:41:40;2.87;;;1.43;;
5845;SDS011;2949;50.778;7.094;2022-11-06T03:44:17;2.50;;;1.57;;
5845;SDS011;2949;50.778;7.094;2022-11-06T03:46:48;6.90;;;2.70;;
5845;SDS011;2949;50.778;7.094;2022-11-06T03:49:23;5.67;;;2.10;;
5845;SDS011;2949;50.778;7.094;2022-11-06T03:51:56;7.23;;;1.90;;
5845;SDS011;2949;50.778;7.094;2022-11-06T03:54:25;4.13;;;2.00;;
5845;SDS011;2949;50.778;7.094;2022-11-06T03:56:57;3.53;;;1.67;;
5845;SDS011;2949;50.778;7.094;2022-11-06T03:59:34;12.53;;;2.00;;
5845;SDS011;2949;50.778;7.094;2022-11-06T04:02:05;6.13;;;1.97;;
5845;SDS011;2949;50.778;7.094;2022-11-06T04:04:40;10.03;;;1.90;;
5845;SDS011;2949;50.778;7.094;2022-11-06T04:07:15;5.27;;;1.70;;
5845;SDS011;2949;50.778;7.094;2022-11-06T04:09:56;6.73;;;1.27;;
5845;SDS011;2949;50.778;7.094;2022-11-06T04:12:43;8.20;;;2.10;;
5845;SDS011;2949;50.778;7.094;2022-11-06T04:15:30;15.30;;;1.60;;
5845;SDS011;2949;50.778;7.094;2022-11-06T04:17:59;6.23;;;1.97;;
5845;SDS011;2949;50.778;7.094;2022-11-06T04:20:26;9.03;;;1.60;;
5845;SDS011;2949;50.778;7.094;2022-11-06T04:29:07;2.43;;;1.27;;
5845;SDS011;2949;50.778;7.094;2022-11-06T04:31:47;4.27;;;2.00;;
5845;SDS011;2949;50.778;7.094;2022-11-06T04:37:29;8.90;;;1.93;;
5845;SDS011;2949;50.778;7.094;2022-11-06T04:40:20;3.80;;;1.83;;
5845;SDS011;2949;50.778;7.094;2022-11-06T04:42:54;7.27;;;1.50;;
5845;SDS011;2949;50.778;7.094;2022-11-06T04:45:29;3.10;;;1.63;;
5845;SDS011;2949;50.778;7.094;2022-11-06T04:47:58;4.67;;;1.80;;
5845;SDS011;2949;50.778;7.094;2022-11-06T04:50:26;3.53;;;1.83;;
5845;SDS011;2949;50.778;7.094;2022-11-06T04:52:54;8.73;;;1.63;;
5845;SDS011;2949;50.778;7.094;2022-11-06T04:55:21;7.50;;;2.00;;
5845;SDS011;2949;50.778;7.094;2022-11-06T04:57:47;3.37;;;1.60;;
5845;SDS011;2949;50.778;7.094;2022-11-06T05:00:13;8.50;;;1.80;;
5845;SDS011;2949;50.778;7.094;2022-11-06T05:02:39;12.50;;;2.13;;
5845;SDS011;2949;50.778;7.094;2022-11-06T05:05:05;3.60;;;1.97;;
5845;SDS011;2949;50.778;7.094;2022-11-06T05:07:31;5.50;;;1.87;;
5845;SDS011;2949;50.778;7.094;2022-11-06T05:09:57;6.97;;;1.30;;
5845;SDS011;2949;50.778;7.094;2022-11-06T05:12:22;10.40;;;2.00;;
5845;SDS011;2949;50.778;7.094;2022-11-06T05:14:48;6.03;;;1.50;;
5845;SDS011;2949;50.778;7.094;2022-11-06T05:17:13;3.40;;;1.57;;
5845;SDS011;2949;50.778;7.094;2022-11-06T05:19:39;5.03;;;1.67;;
5845;SDS011;2949;50.778;7.094;2022-11-06T05:22:04;2.37;;;1.50;;
5845;SDS011;2949;50.778;7.094;2022-11-06T05:24:48;3.90;;;1.70;;
5845;SDS011;2949;50.778;7.094;2022-11-06T05:27:14;4.30;;;1.70;;
5845;SDS011;2949;50.778;7.094;2022-11-06T05:29:39;2.17;;;1.47;;
5845;SDS011;2949;50.778;7.094;2022-11-06T05:32:05;3.07;;;1.63;;
5845;SDS011;2949;50.778;7.094;2022-11-06T05:34:30;2.77;;;1.40;;
5845;SDS011;2949;50.778;7.094;2022-11-06T05:36:56;2.00;;;1.20;;
5845;SDS011;2949;50.778;7.094;2022-11-06T05:39:21;3.93;;;2.10;;
5845;SDS011;2949;50.778;7.094;2022-11-06T05:41:47;5.33;;;1.30;;
5845;SDS011;2949;50.778;7.094;2022-11-06T05:44:12;3.63;;;1.30;;
5845;SDS011;2949;50.778;7.094;2022-11-06T05:46:38;3.87;;;1.43;;
5845;SDS011;2949;50.778;7.094;2022-11-06T05:49:03;8.60;;;1.37;;
5845;SDS011;2949;50.778;7.094;2022-11-06T05:51:29;6.50;;;1.60;;
5845;SDS011;2949;50.778;7.094;2022-11-06T05:53:54;4.57;;;1.17;;
5845;SDS011;2949;50.778;7.094;2022-11-06T05:56:20;5.57;;;0.90;;
5845;SDS011;2949;50.778;7.094;2022-11-06T05:58:45;2.53;;;1.30;;
5845;SDS011;2949;50.778;7.094;2022-11-06T06:01:11;5.30;;;1.67;;
5845;SDS011;2949;50.778;7.094;2022-11-06T06:03:37;4.17;;;1.27;;
5845;SDS011;2949;50.778;7.094;2022-11-06T06:06:02;4.67;;;1.37;;
5845;SDS011;2949;50.778;7.094;2022-11-06T06:08:28;2.40;;;1.30;;
5845;SDS011;2949;50.778;7.094;2022-11-06T06:10:53;5.70;;;1.80;;
5845;SDS011;2949;50.778;7.094;2022-11-06T06:13:19;5.53;;;1.60;;
5845;SDS011;2949;50.778;7.094;2022-11-06T06:15:44;2.90;;;1.70;;
5845;SDS011;2949;50.778;7.094;2022-11-06T06:18:10;1.63;;;1.53;;
5845;SDS011;2949;50.778;7.094;2022-11-06T06:20:36;8.93;;;1.70;;
5845;SDS011;2949;50.778;7.094;2022-11-06T06:23:02;5.20;;;1.70;;
5845;SDS011;2949;50.778;7.094;2022-11-06T06:25:28;4.73;;;1.50;;
5845;SDS011;2949;50.778;7.094;2022-11-06T06:27:54;2.97;;;1.37;;
5845;SDS011;2949;50.778;7.094;2022-11-06T06:30:21;3.23;;;1.33;;
5845;SDS011;2949;50.778;7.094;2022-11-06T06:32:47;7.93;;;1.60;;
5845;SDS011;2949;50.778;7.094;2022-11-06T06:35:14;7.57;;;1.60;;
5845;SDS011;2949;50.778;7.094;2022-11-06T06:37:41;6.50;;;1.47;;
5845;SDS011;2949;50.778;7.094;2022-11-06T06:40:08;2.97;;;1.40;;
5845;SDS011;2949;50.778;7.094;2022-11-06T06:42:34;2.20;;;1.50;;
5845;SDS011;2949;50.778;7.094;2022-11-06T06:45:00;4.60;;;1.30;;
5845;SDS011;2949;50.778;7.094;2022-11-06T06:47:26;6.73;;;1.53;;
5845;SDS011;2949;50.778;7.094;2022-11-06T06:49:51;2.37;;;1.27;;
5845;SDS011;2949;50.778;7.094;2022-11-06T06:52:17;4.10;;;1.80;;
5845;SDS011;2949;50.778;7.094;2022-11-06T06:54:42;5.47;;;1.30;;
5845;SDS011;2949;50.778;7.094;2022-11-06T06:57:08;8.60;;;2.40;;
5845;SDS011;2949;50.778;7.094;2022-11-06T06:59:34;5.03;;;1.50;;
5845;SDS011;2949;50.778;7.094;2022-11-06T07:01:59;4.37;;;1.90;;
5845;SDS011;2949;50.778;7.094;2022-11-06T07:04:25;3.37;;;1.83;;
5845;SDS011;2949;50.778;7.094;2022-11-06T07:06:54;14.23;;;2.27;;
5845;SDS011;2949;50.778;7.094;2022-11-06T07:09:20;6.03;;;2.60;;
5845;SDS011;2949;50.778;7.094;2022-11-06T07:11:47;8.80;;;2.30;;
5845;SDS011;2949;50.778;7.094;2022-11-06T07:14:13;8.77;;;2.30;;
5845;SDS011;2949;50.778;7.094;2022-11-06T07:16:38;11.13;;;2.07;;
5845;SDS011;2949;50.778;7.094;2022-11-06T07:19:04;8.33;;;2.30;;
5845;SDS011;2949;50.778;7.094;2022-11-06T07:21:30;6.00;;;2.20;;
5845;SDS011;2949;50.778;7.094;2022-11-06T07:23:55;6.37;;;2.50;;
5845;SDS011;2949;50.778;7.094;2022-11-06T07:26:21;6.87;;;1.90;;
5845;SDS011;2949;50.778;7.094;2022-11-06T07:28:46;8.07;;;2.13;;
5845;SDS011;2949;50.778;7.094;2022-11-06T07:31:12;3.00;;;1.80;;
5845;SDS011;2949;50.778;7.094;2022-11-06T07:33:37;4.47;;;1.83;;
5845;SDS011;2949;50.778;7.094;2022-11-06T07:36:03;7.57;;;2.30;;
5845;SDS011;2949;50.778;7.094;2022-11-06T07:38:32;2.63;;;1.30;;
5845;SDS011;2949;50.778;7.094;2022-11-06T07:41:06;4.73;;;1.30;;
5845;SDS011;2949;50.778;7.094;2022-11-06T07:43:33;17.97;;;1.97;;
5845;SDS011;2949;50.778;7.094;2022-11-06T07:45:59;3.70;;;1.47;;
5845;SDS011;2949;50.778;7.094;2022-11-06T07:48:26;7.93;;;1.53;;
5845;SDS011;2949;50.778;7.094;2022-11-06T07:50:52;4.27;;;1.50;;
5845;SDS011;2949;50.778;7.094;2022-11-06T07:53:18;1.53;;;0.83;;
5845;SDS011;2949;50.778;7.094;2022-11-06T07:55:51;8.33;;;1.80;;
5845;SDS011;2949;50.778;7.094;2022-11-06T07:58:18;9.53;;;1.57;;
5845;SDS011;2949;50.778;7.094;2022-11-06T08:00:45;7.40;;;1.70;;
5845;SDS011;2949;50.778;7.094;2022-11-06T08:03:11;5.03;;;1.33;;
5845;SDS011;2949;50.778;7.094;2022-11-06T08:05:37;4.17;;;1.90;;
5845;SDS011;2949;50.778;7.094;2022-11-06T08:08:03;6.67;;;1.47;;
5845;SDS011;2949;50.778;7.094;2022-11-06T08:10:28;3.63;;;1.60;;
5845;SDS011;2949;50.778;7.094;2022-11-06T08:12:54;5.60;;;1.80;;
5845;SDS011;2949;50.778;7.094;2022-11-06T08:15:19;1.83;;;1.37;;
5845;SDS011;2949;50.778;7.094;2022-11-06T08:17:45;3.27;;;1.40;;
5845;SDS011;2949;50.778;7.094;2022-11-06T08:20:10;3.53;;;1.80;;
5845;SDS011;2949;50.778;7.094;2022-11-06T08:22:36;1.83;;;1.60;;
5845;SDS011;2949;50.778;7.094;2022-11-06T08:25:01;6.30;;;1.80;;
5845;SDS011;2949;50.778;7.094;2022-11-06T08:27:27;8.87;;;1.87;;
5845;SDS011;2949;50.778;7.094;2022-11-06T08:29:52;3.53;;;1.80;;
5845;SDS011;2949;50.778;7.094;2022-11-06T08:32:18;3.03;;;2.17;;
5845;SDS011;2949;50.778;7.094;2022-11-06T08:34:44;3.77;;;1.20;;
5845;SDS011;2949;50.778;7.094;2022-11-06T08:37:09;4.60;;;1.63;;
5845;SDS011;2949;50.778;7.094;2022-11-06T08:39:35;8.17;;;2.03;;
5845;SDS011;2949;50.778;7.094;2022-11-06T08:42:02;6.07;;;1.77;;
5845;SDS011;2949;50.778;7.094;2022-11-06T08:44:28;5.60;;;1.63;;
5845;SDS011;2949;50.778;7.094;2022-11-06T08:46:53;3.37;;;2.00;;
5845;SDS011;2949;50.778;7.094;2022-11-06T08:49:19;2.30;;;1.73;;
5845;SDS011;2949;50.778;7.094;2022-11-06T08:51:44;3.17;;;1.50;;
5845;SDS011;2949;50.778;7.094;2022-11-06T08:54:10;2.90;;;1.97;;
5845;SDS011;2949;50.778;7.094;2022-11-06T08:56:36;3.73;;;1.83;;
5845;SDS011;2949;50.778;7.094;2022-11-06T08:59:02;5.40;;;1.70;;
5845;SDS011;2949;50.778;7.094;2022-11-06T09:01:27;5.53;;;1.70;;
5845;SDS011;2949;50.778;7.094;2022-11-06T09:03:54;11.23;;;1.97;;
5845;SDS011;2949;50.778;7.094;2022-11-06T09:06:19;3.37;;;1.70;;
5845;SDS011;2949;50.778;7.094;2022-11-06T09:08:45;4.30;;;1.93;;
5845;SDS011;2949;50.778;7.094;2022-11-06T09:11:10;13.40;;;2.07;;
5845;SDS011;2949;50.778;7.094;2022-11-06T09:13:36;6.50;;;2.47;;
5845;SDS011;2949;50.778;7.094;2022-11-06T09:16:02;7.37;;;3.40;;
5845;SDS011;2949;50.778;7.094;2022-11-06T09:18:28;4.03;;;2.77;;
5845;SDS011;2949;50.778;7.094;2022-11-06T09:20:54;2.90;;;2.20;;
5845;SDS011;2949;50.778;7.094;2022-11-06T09:23:20;3.03;;;1.80;;
5845;SDS011;2949;50.778;7.094;2022-11-06T09:25:46;5.63;;;2.20;;
5845;SDS011;2949;50.778;7.094;2022-11-06T09:28:11;8.40;;;2.47;;
5845;SDS011;2949;50.778;7.094;2022-11-06T09:30:37;4.77;;;2.30;;
5845;SDS011;2949;50.778;7.094;2022-11-06T09:33:03;10.50;;;2.00;;
5845;SDS011;2949;50.778;7.094;2022-11-06T09:35:29;6.97;;;2.17;;
5845;SDS011;2949;50.778;7.094;2022-11-06T09:38:00;8.00;;;2.70;;
5845;SDS011;2949;50.778;7.094;2022-11-06T09:40:32;3.53;;;2.43;;
5845;SDS011;2949;50.778;7.094;2022-11-06T09:43:02;9.03;;;2.80;;
5845;SDS011;2949;50.778;7.094;2022-11-06T09:45:32;7.60;;;2.50;;
5845;SDS011;2949;50.778;7.094;2022-11-06T09:48:03;3.83;;;2.00;;
5845;SDS011;2949;50.778;7.094;2022-11-06T09:50:34;2.30;;;2.00;;
5845;SDS011;2949;50.778;7.094;2022-11-06T09:53:09;3.50;;;1.60;;
5845;SDS011;2949;50.778;7.094;2022-11-06T09:55:41;4.10;;;1.93;;
5845;SDS011;2949;50.778;7.094;2022-11-06T09:58:19;3.30;;;1.87;;
5845;SDS011;2949;50.778;7.094;2022-11-06T10:00:50;3.30;;;1.93;;
5845;SDS011;2949;50.778;7.094;2022-11-06T10:03:19;5.13;;;3.37;;
5845;SDS011;2949;50.778;7.094;2022-11-06T10:05:51;1.97;;;1.60;;
5845;SDS011;2949;50.778;7.094;2022-11-06T10:08:27;5.67;;;2.17;;
5845;SDS011;2949;50.778;7.094;2022-11-06T10:13:38;3.60;;;2.17;;
5845;SDS011;2949;50.778;7.094;2022-11-06T10:24:45;4.97;;;2.20;;
5845;SDS011;2949;50.778;7.094;2022-11-06T10:27:40;2.40;;;2.10;;
5845;SDS011;2949;50.778;7.094;2022-11-06T10:30:13;6.73;;;3.03;;
5845;SDS011;2949;50.778;7.094;2022-11-06T10:35:14;2.40;;;1.83;;
5845;SDS011;2949;50.778;7.094;2022-11-06T10:38:09;5.60;;;3.20;;
5845;SDS011;2949;50.778;7.094;2022-11-06T10:40:38;3.73;;;2.70;;
5845;SDS011;2949;50.778;7.094;2022-11-06T10:45:50;2.57;;;1.40;;
5845;SDS011;2949;50.778;7.094;2022-11-06T10:51:07;4.70;;;1.73;;
5845;SDS011;2949;50.778;7.094;2022-11-06T10:53:57;5.60;;;2.67;;
5845;SDS011;2949;50.778;7.094;2022-11-06T10:59:24;8.83;;;2.37;;
5845;SDS011;2949;50.778;7.094;2022-11-06T11:01:50;7.20;;;2.23;;
5845;SDS011;2949;50.778;7.094;2022-11-06T11:04:15;3.90;;;2.13;;
5845;SDS011;2949;50.778;7.094;2022-11-06T11:06:41;7.50;;;2.67;;
5845;SDS011;2949;50.778;7.094;2022-11-06T11:09:24;4.07;;;2.07;;
5845;SDS011;2949;50.778;7.094;2022-11-06T11:11:55;2.80;;;1.90;;
5845;SDS011;2949;50.778;7.094;2022-11-06T11:14:22;4.30;;;2.00;;
5845;SDS011;2949;50.778;7.094;2022-11-06T11:16:49;8.07;;;1.63;;
5845;SDS011;2949;50.778;7.094;2022-11-06T11:22:03;10.77;;;2.60;;
5845;SDS011;2949;50.778;7.094;2022-11-06T11:24:28;3.00;;;1.70;;
5845;SDS011;2949;50.778;7.094;2022-11-06T11:26:58;4.00;;;2.00;;
5845;SDS011;2949;50.778;7.094;2022-11-06T11:29:26;3.37;;;1.80;;
5845;SDS011;2949;50.778;7.094;2022-11-06T11:31:56;3.93;;;1.73;;
5845;SDS011;2949;50.778;7.094;2022-11-06T11:34:25;5.70;;;1.70;;
5845;SDS011;2949;50.778;7.094;2022-11-06T11:36:57;1.63;;;1.50;;
5845;SDS011;2949;50.778;7.094;2022-11-06T11:39:31;10.47;;;2.57;;
5845;SDS011;2949;50.778;7.094;2022-11-06T11:42:15;5.83;;;1.97;;
5845;SDS011;2949;50.778;7.094;2022-11-06T11:44:45;3.17;;;1.40;;
5845;SDS011;2949;50.778;7.094;2022-11-06T11:47:21;4.87;;;1.80;;
5845;SDS011;2949;50.778;7.094;2022-11-06T11:49:47;6.57;;;2.17;;
5845;SDS011;2949;50.778;7.094;2022-11-06T11:52:15;3.67;;;1.80;;
5845;SDS011;2949;50.778;7.094;2022-11-06T11:54:46;5.97;;;1.60;;
5845;SDS011;2949;50.778;7.094;2022-11-06T11:57:17;5.13;;;1.60;;
5845;SDS011;2949;50.778;7.094;2022-11-06T11:59:46;3.83;;;1.60;;
5845;SDS011;2949;50.778;7.094;2022-11-06T12:02:19;3.00;;;1.33;;
5845;SDS011;2949;50.778;7.094;2022-11-06T12:04:51;2.67;;;1.27;;
5845;SDS011;2949;50.778;7.094;2022-11-06T12:07:27;2.87;;;1.40;;
5845;SDS011;2949;50.778;7.094;2022-11-06T12:09:55;2.37;;;1.43;;
5845;SDS011;2949;50.778;7.094;2022-11-06T12:12:44;2.20;;;1.50;;
5845;SDS011;2949;50.778;7.094;2022-11-06T12:15:22;6.00;;;1.47;;
5845;SDS011;2949;50.778;7.094;2022-11-06T12:17:55;1.90;;;1.20;;
5845;SDS011;2949;50.778;7.094;2022-11-06T12:20:26;2.73;;;1.00;;
5845;SDS011;2949;50.778;7.094;2022-11-06T12:23:04;2.93;;;1.10;;
5845;SDS011;2949;50.778;7.094;2022-11-06T12:25:38;4.10;;;1.53;;
5845;SDS011;2949;50.778;7.094;2022-11-06T12:28:11;2.90;;;1.83;;
5845;SDS011;2949;50.778;7.094;2022-11-06T12:30:41;3.10;;;1.10;;
5845;SDS011;2949;50.778;7.094;2022-11-06T12:33:10;2.30;;;0.80;;
5845;SDS011;2949;50.778;7.094;2022-11-06T12:35:43;1.10;;;1.00;;
5845;SDS011;2949;50.778;7.094;2022-11-06T12:40:39;4.50;;;1.30;;
5845;SDS011;2949;50.778;7.094;2022-11-06T12:43:14;2.80;;;1.10;;
5845;SDS011;2949;50.778;7.094;2022-11-06T12:56:43;1.70;;;1.47;;
5845;SDS011;2949;50.778;7.094;2022-11-06T12:59:24;1.70;;;0.77;;
5845;SDS011;2949;50.778;7.094;2022-11-06T13:02:28;0.93;;;0.67;;
5845;SDS011;2949;50.778;7.094;2022-11-06T13:05:30;2.80;;;0.97;;
5845;SDS011;2949;50.778;7.094;2022-11-06T13:08:00;1.80;;;0.93;;
5845;SDS011;2949;50.778;7.094;2022-11-06T13:10:50;3.17;;;1.03;;
5845;SDS011;2949;50.778;7.094;2022-11-06T13:16:40;7.43;;;1.83;;
5845;SDS011;2949;50.778;7.094;2022-11-06T13:19:19;3.40;;;0.90;;
5845;SDS011;2949;50.778;7.094;2022-11-06T13:22:03;2.83;;;1.33;;
5845;SDS011;2949;50.778;7.094;2022-11-06T13:24:46;1.53;;;0.80;;
5845;SDS011;2949;50.778;7.094;2022-11-06T13:27:22;5.80;;;0.90;;
5845;SDS011;2949;50.778;7.094;2022-11-06T13:30:00;3.03;;;0.93;;
5845;SDS011;2949;50.778;7.094;2022-11-06T13:32:28;0.83;;;0.70;;
5845;SDS011;2949;50.778;7.094;2022-11-06T13:34:56;3.87;;;0.90;;
5845;SDS011;2949;50.778;7.094;2022-11-06T13:42:47;0.93;;;0.70;;
5845;SDS011;2949;50.778;7.094;2022-11-06T13:45:19;2.17;;;0.87;;
5845;SDS011;2949;50.778;7.094;2022-11-06T13:47:54;3.33;;;0.90;;
5845;SDS011;2949;50.778;7.094;2022-11-06T13:50:36;1.70;;;0.83;;
5845;SDS011;2949;50.778;7.094;2022-11-06T13:53:23;1.43;;;0.70;;
5845;SDS011;2949;50.778;7.094;2022-11-06T13:56:10;4.00;;;1.07;;
5845;SDS011;2949;50.778;7.094;2022-11-06T14:01:24;2.20;;;0.90;;
5845;SDS011;2949;50.778;7.094;2022-11-06T14:06:52;2.93;;;1.73;;
5845;SDS011;2949;50.778;7.094;2022-11-06T14:09:23;3.73;;;1.83;;
5845;SDS011;2949;50.778;7.094;2022-11-06T14:11:51;8.70;;;2.10;;
5845;SDS011;2949;50.778;7.094;2022-11-06T14:16:44;4.00;;;1.10;;
5845;SDS011;2949;50.778;7.094;2022-11-06T14:19:29;1.23;;;0.90;;
5845;SDS011;2949;50.778;7.094;2022-11-06T14:24:39;0.83;;;0.70;;
5845;SDS011;2949;50.778;7.094;2022-11-06T14:27:10;10.27;;;1.80;;
5845;SDS011;2949;50.778;7.094;2022-11-06T14:29:57;3.10;;;1.00;;
5845;SDS011;2949;50.778;7.094;2022-11-06T14:34:54;2.20;;;1.20;;
5845;SDS011;2949;50.778;7.094;2022-11-06T14:42:31;3.70;;;1.10;;
5845;SDS011;2949;50.778;7.094;2022-11-06T14:47:33;4.60;;;0.93;;
5845;SDS011;2949;50.778;7.094;2022-11-06T14:50:00;2.90;;;1.00;;
5845;SDS011;2949;50.778;7.094;2022-11-06T14:52:46;2.93;;;1.47;;
5845;SDS011;2949;50.778;7.094;2022-11-06T14:55:54;1.60;;;1.43;;
5845;SDS011;2949;50.778;7.094;2022-11-06T14:58:26;2.00;;;1.53;;
5845;SDS011;2949;50.778;7.094;2022-11-06T15:01:23;2.20;;;0.97;;
5845;SDS011;2949;50.778;7.094;2022-11-06T15:06:42;1.37;;;1.27;;
5845;SDS011;2949;50.778;7.094;2022-11-06T15:09:12;3.10;;;1.40;;
5845;SDS011;2949;50.778;7.094;2022-11-06T15:11:59;2.00;;;1.80;;
5845;SDS011;2949;50.778;7.094;2022-11-06T15:16:59;1.97;;;1.77;;
5845;SDS011;2949;50.778;7.094;2022-11-06T15:19:27;1.50;;;1.37;;
5845;SDS011;2949;50.778;7.094;2022-11-06T15:22:18;6.10;;;4.27;;
5845;SDS011;2949;50.778;7.094;2022-11-06T15:24:56;1.30;;;1.20;;
5845;SDS011;2949;50.778;7.094;2022-11-06T15:27:29;3.37;;;1.67;;
5845;SDS011;2949;50.778;7.094;2022-11-06T15:29:59;1.67;;;1.57;;
5845;SDS011;2949;50.778;7.094;2022-11-06T15:32:32;1.30;;;1.20;;
5845;SDS011;2949;50.778;7.094;2022-11-06T15:35:04;1.80;;;1.27;;
5845;SDS011;2949;50.778;7.094;2022-11-06T15:37:40;3.20;;;1.87;;
5845;SDS011;2949;50.778;7.094;2022-11-06T15:40:20;2.20;;;1.40;;
5845;SDS011;2949;50.778;7.094;2022-11-06T15:42:49;2.80;;;1.20;;
5845;SDS011;2949;50.778;7.094;2022-11-06T15:48:03;3.40;;;3.00;;
5845;SDS011;2949;50.778;7.094;2022-11-06T15:50:30;2.10;;;1.67;;
5845;SDS011;2949;50.778;7.094;2022-11-06T15:55:52;3.73;;;2.20;;
5845;SDS011;2949;50.778;7.094;2022-11-06T15:58:31;5.03;;;1.97;;
5845;SDS011;2949;50.778;7.094;2022-11-06T16:00:59;4.17;;;2.20;;
5845;SDS011;2949;50.778;7.094;2022-11-06T16:03:26;1.77;;;1.67;;
5845;SDS011;2949;50.778;7.094;2022-11-06T16:05:55;2.30;;;2.10;;
5845;SDS011;2949;50.778;7.094;2022-11-06T16:08:24;2.37;;;2.27;;
5845;SDS011;2949;50.778;7.094;2022-11-06T16:10:52;4.00;;;3.07;;
5845;SDS011;2949;50.778;7.094;2022-11-06T16:13:19;5.63;;;2.47;;
5845;SDS011;2949;50.778;7.094;2022-11-06T16:15:52;4.67;;;3.47;;
5845;SDS011;2949;50.778;7.094;2022-11-06T16:18:38;4.07;;;2.60;;
5845;SDS011;2949;50.778;7.094;2022-11-06T16:23:47;9.43;;;4.63;;
5845;SDS011;2949;50.778;7.094;2022-11-06T16:28:56;4.07;;;2.70;;
5845;SDS011;2949;50.778;7.094;2022-11-06T16:31:23;8.40;;;4.53;;
5845;SDS011;2949;50.778;7.094;2022-11-06T16:33:52;12.20;;;4.40;;
5845;SDS011;2949;50.778;7.094;2022-11-06T16:36:26;6.10;;;3.90;;
5845;SDS011;2949;50.778;7.094;2022-11-06T16:38:54;7.23;;;4.10;;
5845;SDS011;2949;50.778;7.094;2022-11-06T16:52:29;2.60;;;2.30;;
5845;SDS011;2949;50.778;7.094;2022-11-06T16:57:51;2.40;;;2.20;;
5845;SDS011;2949;50.778;7.094;2022-11-06T17:02:44;1.93;;;1.83;;
5845;SDS011;2949;50.778;7.094;2022-11-06T17:05:25;2.10;;;1.70;;
5845;SDS011;2949;50.778;7.094;2022-11-06T17:10:50;4.13;;;2.20;;
5845;SDS011;2949;50.778;7.094;2022-11-06T17:13:21;4.87;;;2.47;;
5845;SDS011;2949;50.778;7.094;2022-11-06T17:15:51;5.93;;;3.00;;
5845;SDS011;2949;50.778;7.094;2022-11-06T17:18:24;4.63;;;3.00;;
5845;SDS011;2949;50.778;7.094;2022-11-06T17:20:55;5.17;;;2.80;;
5845;SDS011;2949;50.778;7.094;2022-11-06T17:23:23;5.40;;;2.50;;
5845;SDS011;2949;50.778;7.094;2022-11-06T17:25:51;5.03;;;2.17;;
5845;SDS011;2949;50.778;7.094;2022-11-06T17:28:19;3.97;;;1.93;;
5845;SDS011;2949;50.778;7.094;2022-11-06T17:30:46;5.50;;;2.57;;
5845;SDS011;2949;50.778;7.094;2022-11-06T17:33:12;3.43;;;2.47;;
5845;SDS011;2949;50.778;7.094;2022-11-06T17:35:38;4.60;;;2.40;;
5845;SDS011;2949;50.778;7.094;2022-11-06T17:38:04;5.17;;;2.87;;
5845;SDS011;2949;50.778;7.094;2022-11-06T17:40:30;4.73;;;3.47;;
5845;SDS011;2949;50.778;7.094;2022-11-06T17:42:56;5.20;;;3.50;;